createdAt,value
2018-10-09T00:00:26.733Z,22.02
2018-10-09T00:05:30.149Z,22.02
2018-10-09T00:10:33.648Z,21.99
2018-10-09T00:15:37.121Z,21.96
2018-10-09T00:20:40.556Z,21.94
2018-10-09T00:25:43.964Z,21.89
2018-10-09T00:30:47.404Z,21.87
2018-10-09T00:35:50.820Z,21.82
2018-10-09T00:40:54.256Z,21.76
2018-10-09T00:51:00.120Z,21.65
2018-10-09T00:56:03.531Z,21.61
2018-10-09T01:01:06.987Z,21.56
2018-10-09T01:06:10.416Z,21.53
2018-10-09T01:11:13.865Z,21.48
2018-10-09T01:16:17.265Z,21.46
2018-10-09T01:21:20.764Z,21.45
2018-10-09T01:26:24.201Z,21.42
2018-10-09T01:31:27.612Z,21.39
2018-10-09T01:36:31.040Z,21.35
2018-10-09T01:41:34.460Z,21.33
2018-10-09T01:46:37.868Z,21.31
2018-10-09T01:51:41.297Z,21.28
2018-10-09T01:56:44.704Z,21.25
2018-10-09T02:01:48.116Z,21.25
2018-10-09T02:06:51.534Z,21.24
2018-10-09T02:11:54.939Z,21.23
2018-10-09T02:16:58.357Z,21.23
2018-10-09T02:22:01.773Z,21.20
2018-10-09T02:27:05.212Z,21.19
2018-10-09T02:32:08.648Z,21.18
2018-10-09T02:37:12.043Z,21.17
2018-10-09T02:42:15.452Z,21.15
2018-10-09T02:47:18.863Z,21.13
2018-10-09T02:52:22.274Z,21.12
2018-10-09T02:57:25.680Z,21.10
2018-10-09T03:02:29.160Z,21.08
2018-10-09T03:07:32.564Z,21.07
2018-10-09T03:12:35.987Z,21.07
2018-10-09T03:17:39.432Z,21.04
2018-10-09T03:22:42.910Z,21.03
2018-10-09T03:27:46.322Z,21.01
2018-10-09T03:32:49.732Z,20.99
2018-10-09T03:37:53.151Z,21.00
2018-10-09T03:42:56.568Z,20.98
2018-10-09T03:47:59.976Z,20.96
2018-10-09T03:53:03.412Z,20.99
2018-10-09T03:58:07.083Z,20.97
2018-10-09T04:03:10.496Z,20.97
2018-10-09T04:08:13.961Z,20.94
2018-10-09T04:13:17.389Z,20.92
2018-10-09T04:18:20.835Z,20.91
2018-10-09T04:23:24.262Z,20.89
2018-10-09T04:28:27.713Z,20.87
2018-10-09T04:33:31.175Z,20.86
2018-10-09T04:38:34.599Z,20.85
2018-10-09T04:43:38.024Z,20.83
2018-10-09T04:48:41.435Z,20.81
2018-10-09T04:53:44.869Z,20.79
2018-10-09T04:58:48.297Z,20.78
2018-10-09T05:03:51.734Z,20.78
2018-10-09T05:08:55.150Z,20.76
2018-10-09T05:13:58.584Z,20.73
2018-10-09T05:19:02.025Z,20.69
2018-10-09T05:24:05.448Z,20.67
2018-10-09T05:29:08.877Z,20.64
2018-10-09T05:34:12.321Z,20.64
2018-10-09T05:39:15.758Z,20.62
2018-10-09T05:44:19.256Z,20.60
2018-10-09T05:49:22.643Z,20.59
2018-10-09T05:54:26.101Z,20.57
2018-10-09T05:59:29.536Z,20.56
2018-10-09T06:04:32.960Z,20.56
2018-10-09T06:09:36.400Z,20.54
2018-10-09T06:14:39.832Z,20.54
2018-10-09T06:19:43.252Z,20.54
2018-10-09T06:24:46.668Z,20.54
2018-10-09T06:29:50.100Z,20.52
2018-10-09T06:34:53.525Z,20.52
2018-10-09T06:39:56.960Z,20.51
2018-10-09T06:45:00.423Z,20.51
2018-10-09T06:50:03.995Z,20.46
2018-10-09T06:55:07.428Z,20.39
2018-10-09T07:00:10.892Z,20.35
2018-10-09T07:05:14.333Z,20.40
2018-10-09T07:10:17.767Z,20.44
2018-10-09T07:15:21.209Z,20.47
2018-10-09T07:20:24.644Z,20.47
2018-10-09T07:25:28.099Z,20.50
2018-10-09T07:30:31.532Z,20.50
2018-10-09T07:35:34.956Z,20.51
2018-10-09T07:40:38.378Z,20.54
2018-10-09T07:45:41.823Z,20.53
2018-10-09T07:50:45.264Z,20.55
2018-10-09T07:55:48.701Z,20.57
2018-10-09T08:00:52.133Z,20.57
2018-10-09T08:05:55.570Z,20.59
2018-10-09T08:10:59.065Z,20.60
2018-10-09T08:16:02.557Z,20.62
2018-10-09T08:21:06.122Z,20.62
2018-10-09T08:26:09.551Z,20.63
2018-10-09T08:31:13.015Z,20.65
2018-10-09T08:36:16.506Z,20.66
2018-10-09T08:41:20.075Z,20.46
2018-10-09T08:46:23.506Z,18.88
2018-10-09T08:51:26.881Z,18.69
2018-10-09T08:56:30.438Z,18.53
2018-10-09T09:01:33.881Z,18.39
2018-10-09T09:06:37.329Z,18.32
2018-10-09T09:11:40.781Z,18.34
2018-10-09T09:16:44.250Z,18.25
2018-10-09T09:21:47.729Z,18.27
2018-10-09T09:26:51.218Z,18.22
2018-10-09T09:31:54.670Z,18.19
2018-10-09T09:36:58.153Z,18.17
2018-10-09T09:42:01.577Z,18.21
2018-10-09T09:47:05.025Z,18.24
2018-10-09T09:52:08.555Z,18.32
2018-10-09T09:57:12.045Z,18.38
2018-10-09T10:02:15.481Z,18.41
2018-10-09T10:07:18.920Z,18.38
2018-10-09T10:12:22.369Z,18.42
2018-10-09T10:17:25.813Z,18.53
2018-10-09T10:22:29.375Z,18.50
2018-10-09T10:27:33.070Z,18.65
2018-10-09T10:32:36.500Z,18.68
2018-10-09T10:37:39.943Z,18.77
2018-10-09T10:42:43.760Z,18.66
2018-10-09T10:47:47.189Z,18.60
2018-10-09T10:52:50.715Z,18.63
2018-10-09T10:57:54.149Z,18.69
2018-10-09T11:02:57.585Z,18.75
2018-10-09T11:08:01.127Z,18.88
2018-10-09T11:13:04.510Z,18.89
2018-10-09T11:18:07.945Z,19.08
2018-10-09T11:23:11.395Z,19.32
2018-10-09T11:28:14.869Z,19.63
2018-10-09T11:33:18.356Z,19.70
2018-10-09T11:38:21.765Z,19.89
2018-10-09T11:43:25.212Z,19.95
2018-10-09T11:48:28.661Z,19.88
2018-10-09T11:53:32.105Z,20.07
2018-10-09T11:58:35.568Z,20.12
2018-10-09T12:03:38.988Z,20.19
2018-10-09T12:08:42.421Z,20.18
2018-10-09T12:13:45.901Z,20.26
2018-10-09T12:18:49.358Z,20.33
2018-10-09T12:23:52.837Z,20.44
2018-10-09T12:28:56.369Z,20.43
2018-10-09T12:33:59.797Z,20.54
2018-10-09T12:39:04.235Z,20.57
2018-10-09T12:44:07.881Z,20.63
2018-10-09T12:49:11.333Z,20.45
2018-10-09T12:54:14.763Z,20.58
2018-10-09T12:59:18.226Z,20.65
2018-10-09T13:04:21.647Z,20.70
2018-10-09T13:09:25.143Z,20.73
2018-10-09T13:14:28.572Z,20.74
2018-10-09T13:19:32.038Z,20.83
2018-10-09T13:24:35.494Z,20.75
2018-10-09T13:29:38.929Z,20.75
2018-10-09T13:34:42.339Z,20.80
2018-10-09T13:39:45.773Z,20.74
2018-10-09T13:50:25.291Z,20.80
2018-10-09T13:55:28.701Z,20.69
2018-10-09T14:00:32.211Z,20.77
2018-10-09T14:05:35.633Z,20.82
2018-10-09T14:10:39.059Z,20.88
2018-10-09T14:15:42.537Z,20.84
2018-10-09T14:20:45.978Z,20.81
2018-10-09T14:25:49.441Z,20.81
2018-10-09T14:30:52.889Z,20.76
2018-10-09T14:35:56.396Z,20.83
2018-10-09T14:41:00.031Z,20.81
2018-10-09T14:46:03.826Z,20.81
2018-10-09T14:51:07.539Z,20.78
2018-10-09T14:56:10.972Z,20.77
2018-10-09T15:01:14.701Z,20.79
2018-10-09T15:06:18.401Z,20.76
2018-10-09T15:11:21.884Z,20.76
2018-10-09T15:16:25.625Z,20.77
2018-10-09T15:21:29.115Z,20.75
2018-10-09T15:26:32.964Z,20.72
2018-10-09T15:31:36.651Z,20.65
2018-10-09T15:36:40.239Z,20.60
2018-10-09T15:41:43.914Z,20.49
2018-10-09T15:46:47.526Z,20.43
2018-10-09T15:51:51.341Z,20.44
2018-10-09T15:56:55.176Z,20.35
2018-10-09T16:01:58.642Z,20.26
2018-10-09T16:07:02.121Z,20.23
2018-10-09T16:12:05.576Z,20.18
2018-10-09T16:17:09.060Z,20.66
2018-10-09T16:22:12.535Z,20.79
2018-10-09T16:27:16.005Z,20.89
2018-10-09T16:32:19.515Z,20.83
2018-10-09T16:37:22.954Z,20.81
2018-10-09T16:42:26.418Z,20.81
2018-10-09T16:47:29.923Z,20.90
2018-10-09T16:52:33.374Z,20.83
2018-10-09T16:57:36.853Z,20.82
2018-10-09T17:02:40.313Z,20.83
2018-10-09T17:07:43.801Z,20.81
2018-10-09T17:12:47.268Z,20.87
2018-10-09T17:17:50.751Z,20.82
2018-10-09T17:22:54.210Z,20.81
2018-10-09T17:27:57.685Z,20.82
2018-10-09T17:33:01.218Z,20.81
2018-10-09T17:38:04.642Z,20.80
2018-10-09T17:43:08.290Z,20.79
2018-10-09T17:48:11.784Z,20.88
2018-10-09T17:53:15.255Z,20.83
2018-10-09T17:58:18.749Z,20.81
2018-10-09T18:03:22.344Z,20.81
2018-10-09T18:08:25.965Z,20.83
2018-10-09T18:13:29.426Z,20.87
2018-10-09T18:18:32.889Z,20.90
2018-10-09T18:23:36.313Z,20.93
2018-10-09T18:28:39.776Z,20.96
2018-10-09T18:33:43.236Z,21.01
2018-10-09T18:38:46.675Z,21.03
2018-10-09T18:43:50.141Z,21.07
2018-10-09T18:48:53.580Z,21.10
2018-10-09T18:53:57.026Z,21.12
2018-10-09T18:59:00.558Z,21.14
2018-10-09T19:04:04.029Z,21.17
2018-10-09T19:09:10.556Z,21.19
2018-10-09T19:14:13.962Z,21.21
2018-10-09T19:19:17.408Z,21.24
2018-10-09T19:24:20.954Z,21.25
2018-10-09T19:29:24.542Z,21.27
2018-10-09T19:34:28.113Z,21.29
2018-10-09T19:39:31.593Z,21.31
2018-10-09T19:44:35.211Z,21.32
2018-10-09T19:49:38.696Z,21.32
